Data for 05/09/2014

Time Sea-Level Adjusted Pressure Absolute Pressure Temperature Relative Humidity Dew Point   
(mb) (inHg) (mb) (inHg) (C) (F) (%) (C) (F)
00:05 1009 29.8 838 24.75 6 42.8 53 -2.7 27.1
00:10 1009 29.8 838 24.75 5.8 42.4 53 -3 26.7
00:15 1009 29.8 838 24.75 6 42.7 53 -3 26.6
00:20 1009 29.8 838 24.75 5.8 42.4 54 -2.7 27.1
00:25 1009 29.8 838 24.75 5.6 42.1 55 -2.8 26.9
00:30 1009 29.8 838 24.75 5.6 42.1 54 -3 26.5
00:35 1009 29.8 838 24.75 5.8 42.5 52 -3.2 26.2
00:40 1009 29.8 838 24.75 6.1 43 52 -3.1 26.5
00:45 1009 29.8 838 24.75 6 42.7 53 -2.9 26.7
00:50 1009 29.8 838 24.75 6 42.8 51 -3.5 25.8
00:55 1009 29.8 838 24.75 6.1 43 52 -2.9 26.7
01:00 1009 29.8 838 24.75 6 42.8 51 -3.3 26.1
01:05 1009 29.8 838 24.75 6.1 43.1 51 -3.2 26.3
01:10 1009 29.8 838 24.75 6 42.8 52 -3 26.7
01:15 1009 29.8 838 24.75 5.9 42.6 52 -3.1 26.4
01:20 1009 29.8 838 24.75 6.1 43 52 -3 26.6
01:25 1009 29.8 838 24.75 6.2 43.1 50 -3.4 26
01:30 1009 29.8 838 24.75 6.3 43.3 51 -3 26.6
01:35 1009 29.8 838 24.75 6.2 43.2 50 -3.3 26
01:40 1009 29.8 838 24.75 6.2 43.2 52 -2.9 26.8
01:45 1009 29.8 838 24.75 6 42.8 52 -3.2 26.2
01:50 1009 29.8 838 24.75 6 42.8 51 -3.2 26.2
01:55 1009 29.8 838 24.75 6.3 43.3 50 -3.4 25.9
02:00 1009 29.8 838 24.75 6.5 43.7 51 -3 26.6
02:05 1009 29.8 838 24.75 7.3 45.1 44 -4.1 24.6
02:10 1009 29.8 838 24.75 7.5 45.5 46 -3.2 26.2
02:15 1009 29.8 838 24.75 7.4 45.2 47 -3.3 26
02:20 1009 29.8 838 24.75 7.6 45.6 45 -3.6 25.5
02:25 1009 29.8 838 24.75 7.4 45.4 48 -2.9 26.7
02:30 1009 29.8 838 24.75 6.8 44.2 50 -2.8 27
02:35 1009 29.8 838 24.75 6.5 43.8 52 -2.5 27.5
02:40 1009 29.8 838 24.75 6.6 43.8 51 -2.9 26.7
02:45 1009 29.8 838 24.75 6.7 44 51 -2.8 27
02:50 1008 29.77 838 24.75 6.4 43.5 53 -2.5 27.4
02:55 1008 29.77 838 24.75 6.2 43.1 54 -2.5 27.5
03:00 1008 29.77 838 24.75 5.9 42.6 54 -2.7 27.2
03:05 1008 29.77 838 24.75 5.9 42.6 56 -2.2 28
03:10 1008 29.77 838 24.75 5.8 42.5 57 -2 28.4
03:15 1008 29.77 838 24.75 6 42.8 56 -2.2 28.1
03:20 1008 29.77 837 24.72 5.9 42.7 54 -2.7 27.2
03:25 1008 29.77 837 24.72 6 42.8 53 -2.7 27.1
03:30 1008 29.77 837 24.72 6 42.7 55 -2.4 27.6
03:35 1008 29.77 837 24.72 5.9 42.6 55 -2.3 27.8
03:40 1008 29.77 837 24.72 5.8 42.4 56 -2.3 27.9
03:45 1008 29.77 837 24.72 5.8 42.4 55 -2.4 27.6
03:50 1008 29.77 837 24.72 5.9 42.7 55 -2.5 27.6
03:55 1008 29.77 837 24.72 6 42.8 55 -2.4 27.7
04:00 1008 29.77 837 24.72 6 42.8 55 -2.4 27.7
04:05 1008 29.77 837 24.72 6 42.8 55 -2.3 27.8
04:10 1008 29.77 837 24.72 6 42.8 55 -2.3 27.9
04:15 1008 29.77 837 24.72 6 42.9 55 -2.2 28
04:20 1008 29.77 837 24.72 6 42.7 56 -2.2 28
04:25 1008 29.77 837 24.72 6 42.9 55 -2.4 27.7
04:30 1008 29.77 837 24.72 6.2 43.1 54 -2.4 27.8
04:35 1008 29.77 837 24.72 6.3 43.3 54 -2.3 27.8
04:40 1008 29.77 837 24.72 6.4 43.5 53 -2.4 27.7
04:45 1008 29.77 837 24.72 6.6 43.8 53 -2.3 27.8
04:50 1008 29.77 837 24.72 6.7 44 53 -2.3 27.8
04:55 1008 29.77 837 24.72 6.7 44 54 -1.9 28.5
05:00 1008 29.77 837 24.72 6.7 44 54 -2 28.4
05:05 1008 29.77 837 24.72 6.6 43.9 55 -1.9 28.6
05:10 1008 29.77 837 24.72 6.5 43.7 56 -1.7 28.9
05:15 1008 29.77 837 24.72 6.5 43.7 55 -2 28.4
05:20 1008 29.77 837 24.72 6.7 44 55 -1.7 28.9
05:25 1008 29.77 837 24.72 6.6 43.9 55 -1.8 28.8
05:30 1008 29.77 837 24.72 6.6 44 55 -1.7 29
05:35 1008 29.77 837 24.72 6.7 44.1 55 -1.7 29
05:40 1008 29.77 837 24.72 6.8 44.3 55 -1.5 29.3
05:45 1008 29.77 837 24.72 6.8 44.2 56 -1.3 29.7
05:50 1008 29.77 837 24.72 6.7 44.1 56 -1.3 29.6
05:55 1008 29.77 837 24.72 6.8 44.2 57 -1.3 29.7
06:00 1008 29.77 837 24.72 6.8 44.3 56 -1.3 29.7
06:05 1008 29.77 837 24.72 7 44.6 56 -1.2 29.8
06:10 1008 29.77 837 24.72 7 44.6 56 -1.1 30.1
06:15 1008 29.77 837 24.72 7.1 44.8 56 -1.1 30
06:20 1008 29.77 837 24.72 7.3 45.1 56 -1 30.2
06:25 1008 29.77 837 24.72 7.4 45.3 56 -0.9 30.4
06:30 1008 29.77 837 24.72 7.4 45.2 58 -0.4 31.2
06:35 1008 29.77 837 24.72 7.2 45 59 -0.1 31.8
06:40 1008 29.77 837 24.72 7.3 45.1 57 -0.6 30.9
06:45 1008 29.77 837 24.72 7.6 45.6 57 -0.4 31.3
06:50 1008 29.77 837 24.72 7.7 45.8 59 0.2 32.4
06:55 1008 29.77 837 24.72 7.7 45.8 60 0.4 32.8
07:00 1008 29.77 837 24.72 7.6 45.8 61 0.7 33.3
07:05 1008 29.77 837 24.72 7.9 46.1 60 0.6 33.1
07:10 1008 29.77 837 24.72 7.9 46.1 61 0.9 33.7
07:15 1008 29.77 837 24.72 7.9 46.2 61 0.8 33.5
07:20 1008 29.77 837 24.72 7.9 46.3 62 1 33.8
07:25 1008 29.77 837 24.72 8 46.4 61 0.9 33.6
07:30 1008 29.77 837 24.72 8.1 46.5 64 1.6 34.8
07:35 1008 29.77 837 24.72 8.1 46.5 66 2.1 35.8
07:40 1008 29.77 837 24.72 8.2 46.7 65 1.9 35.4
07:45 1008 29.77 837 24.72 8.2 46.7 67 2.4 36.4
07:50 1008 29.77 837 24.72 8.2 46.8 69 2.9 37.2
07:55 1008 29.77 837 24.72 8.3 46.9 68 2.8 37.1
08:00 1008 29.77 837 24.72 8.3 46.9 69 3 37.4
08:05 1008 29.77 838 24.75 8.3 47 71 3.4 38
08:10 1008 29.77 838 24.75 8.4 47 71 3.4 38.1
08:15 1008 29.77 838 24.75 8.5 47.2 64 2.2 35.9
08:20 1008 29.77 838 24.75 8.6 47.5 66 2.6 36.6
08:25 1008 29.77 838 24.75 8.4 47.2 65 2.3 36.1
08:30 1008 29.77 838 24.75 8.4 47.1 67 2.7 36.9
08:35 1008 29.77 838 24.75 8.5 47.2 72 3.7 38.7
08:40 1008 29.77 838 24.75 8.3 46.9 77 4.4 39.9
08:45 1008 29.77 838 24.75 8 46.4 77 4.3 39.7
08:50 1009 29.8 838 24.75 7.5 45.6 78 4 39.1
08:55 1009 29.8 838 24.75 7.5 45.5 81 4.5 40.1
09:00 1009 29.8 838 24.75 7.8 46.1 74 3.5 38.2
09:05 1009 29.8 838 24.75 7.9 46.2 75 3.7 38.7
09:10 1009 29.8 838 24.75 7.9 46.2 76 3.9 39
09:15 1009 29.8 838 24.75 7.9 46.2 76 4 39.2
09:20 1009 29.8 838 24.75 8 46.3 76 4 39.2
09:25 1009 29.8 838 24.75 8.1 46.5 79 4.6 40.2
09:30 1009 29.8 838 24.75 8 46.5 77 4.2 39.6
09:35 1009 29.8 838 24.75 8 46.4 77 4.2 39.5
09:40 1009 29.8 838 24.75 8 46.3 77 4.2 39.5
09:45 1009 29.8 838 24.75 8 46.3 77 4.3 39.7
09:50 1009 29.8 838 24.75 8 46.5 79 4.6 40.3
09:55 1009 29.8 838 24.75 8 46.4 78 4.4 39.9
10:00 1009 29.8 838 24.75 8 46.5 81 5 41.1
10:05 1009 29.8 838 24.75 7.4 45.3 84 4.8 40.7
10:10 1009 29.8 838 24.75 7.1 44.8 87 5 41
10:15 1009 29.8 838 24.75 6.9 44.4 89 5.2 41.3
10:20 1009 29.8 838 24.75 7.1 44.7 87 5.1 41.1
10:25 1009 29.8 838 24.75 7.1 44.8 87 5.1 41.2
10:30 1009 29.8 838 24.75 6.7 44.1 85 4.4 39.9
10:35 1009 29.8 838 24.75 6.4 43.5 87 4.4 39.9
10:40 1009 29.8 838 24.75 6.5 43.7 89 4.8 40.6
10:45 1009 29.8 838 24.75 6.5 43.7 91 5.1 41.1
10:50 1009 29.8 838 24.75 6.7 44 90 5.2 41.3
10:55 1009 29.8 838 24.75 6.9 44.4 89 5.2 41.4
11:00 1009 29.8 838 24.75 7 44.6 90 5.5 41.8
11:05 1009 29.8 838 24.75 6.7 44 83 4 39.2
11:10 1009 29.8 838 24.75 6.7 44.1 83 4 39.3
11:15 1009 29.8 838 24.75 7.1 44.8 84 4.6 40.3
11:20 1009 29.8 838 24.75 7.4 45.2 86 5.1 41.2
11:25 1009 29.8 838 24.75 7.7 45.9 83 5 41
11:30 1009 29.8 838 24.75 8.1 46.7 82 5.2 41.4
11:35 1009 29.8 838 24.75 8.5 47.3 80 5.2 41.3
11:40 1009 29.8 838 24.75 8.6 47.4 80 5.2 41.4
11:45 1009 29.8 838 24.75 8.1 46.7 81 5.1 41.1
11:50 1009 29.8 838 24.75 7.7 45.9 78 4.1 39.4
11:55 1009 29.8 838 24.75 7.7 45.8 75 3.6 38.5
12:00 1009 29.8 838 24.75 7.7 45.8 76 3.8 38.8
12:05 1009 29.8 838 24.75 7.6 45.6 79 4.1 39.5
12:10 1009 29.8 838 24.75 7.4 45.4 76 3.5 38.4
12:15 1009 29.8 838 24.75 7.1 44.7 77 3.4 38.1
12:20 1009 29.8 838 24.75 6.3 43.3 79 2.9 37.3
12:25 1009 29.8 838 24.75 5.8 42.5 79 2.5 36.5
12:30 1009 29.8 839 24.78 5.6 42 81 2.6 36.7
12:35 1010 29.83 839 24.78 5.6 42 83 2.9 37.1
12:40 1010 29.83 839 24.78 5.2 41.3 86 3.1 37.6
12:45 1010 29.83 840 24.81 4.8 40.6 88 2.9 37.2
12:50 1011 29.85 840 24.81 4.4 40 87 2.4 36.4
12:55 1011 29.85 840 24.81 3.7 38.7 90 2.2 35.9
13:00 1011 29.85 840 24.81 3.6 38.6 91 2.3 36.1
13:05 1011 29.85 840 24.81 3.8 38.8 90 2.3 36.1
13:10 1011 29.85 840 24.81 3.9 39.1 87 2 35.6
13:15 1011 29.85 840 24.81 4.1 39.4 88 2.3 36.1
13:20 1011 29.85 840 24.81 4.2 39.5 86 2.1 35.8
13:25 1011 29.85 840 24.81 4.2 39.6 86 2 35.6
13:30 1011 29.85 840 24.81 4.2 39.6 86 2 35.7
13:35 1011 29.85 840 24.81 4.1 39.4 86 2 35.6
13:40 1011 29.85 840 24.81 4.2 39.5 86 2.1 35.8
13:45 1011 29.85 840 24.81 4.4 39.9 88 2.6 36.7
13:50 1011 29.85 840 24.81 4.7 40.4 86 2.5 36.6
13:55 1011 29.85 840 24.81 4.6 40.3 86 2.4 36.3
14:00 1011 29.85 840 24.81 4.6 40.3 85 2.4 36.3
14:05 1011 29.85 840 24.81 4.5 40.2 85 2.2 36
14:10 1011 29.85 840 24.81 4.5 40 87 2.4 36.4
14:15 1011 29.85 840 24.81 4.5 40.1 88 2.7 36.9
14:20 1011 29.85 840 24.81 4.6 40.3 88 2.8 37
14:25 1011 29.85 840 24.81 4.5 40.2 87 2.6 36.7
14:30 1011 29.85 840 24.81 4.4 39.8 85 2 35.7
14:35 1011 29.85 840 24.81 4.5 40.1 85 2.3 36.1
14:40 1011 29.85 840 24.81 4.7 40.4 86 2.6 36.6
14:45 1011 29.85 840 24.81 5 41 85 2.6 36.8
14:50 1011 29.85 840 24.81 5.2 41.4 84 2.7 36.8
14:55 1011 29.85 840 24.81 5 40.9 83 2.3 36.2
15:00 1011 29.85 840 24.81 4.9 40.8 82 2.1 35.7
15:05 1011 29.85 840 24.81 5 40.9 83 2.4 36.2
15:10 1011 29.85 840 24.81 5 41 86 2.8 37.1
15:15 1011 29.85 840 24.81 5.1 41.1 85 2.8 37
15:20 1011 29.85 840 24.81 5 41.1 80 1.9 35.5
15:25 1010 29.83 840 24.81 5 41 82 2.2 35.9
15:30 1010 29.83 840 24.81 5.4 41.8 79 2.1 35.8
15:35 1010 29.83 840 24.81 5.6 42.1 77 1.8 35.3
15:40 1010 29.83 840 24.81 5.9 42.6 77 2.1 35.9
15:45 1010 29.83 840 24.81 6.3 43.3 74 2 35.7
15:50 1010 29.83 840 24.81 6.4 43.5 72 1.8 35.2
15:55 1010 29.83 840 24.81 6.4 43.5 73 1.9 35.5
16:00 1010 29.83 840 24.81 6.5 43.7 71 1.7 35.1
16:05 1011 29.85 840 24.81 6.6 44 74 2.3 36.1
16:10 1011 29.85 840 24.81 7 44.6 68 1.5 34.6
16:15 1011 29.85 840 24.81 7.1 44.7 65 1 33.9
16:20 1011 29.85 840 24.81 7.2 44.9 64 0.7 33.3
16:25 1011 29.85 840 24.81 7.3 45.1 64 0.9 33.7
16:30 1011 29.85 840 24.81 7.4 45.3 60 0.3 32.5
16:35 1011 29.85 840 24.81 7.5 45.5 64 1.2 34.1
16:40 1011 29.85 840 24.81 7.6 45.7 61 0.6 33.1
16:45 1011 29.85 840 24.81 7.6 45.6 62 0.8 33.4
16:50 1011 29.85 840 24.81 7.6 45.7 63 1 33.8
16:55 1011 29.85 840 24.81 7.9 46.2 58 0.1 32.1
17:00 1011 29.85 840 24.81 8 46.3 63 1.3 34.4
17:05 1011 29.85 840 24.81 7.7 45.8 62 0.9 33.5
17:10 1011 29.85 841 24.83 7.8 46 66 1.8 35.2
17:15 1012 29.88 841 24.83 7.5 45.4 76 3.6 38.4
17:20 1012 29.88 841 24.83 5.5 42 84 3 37.3
17:25 1012 29.88 841 24.83 4.6 40.2 88 2.8 37
17:30 1012 29.88 841 24.83 4.4 39.9 89 2.7 36.9
17:35 1012 29.88 841 24.83 4.3 39.8 85 2 35.5
17:40 1012 29.88 841 24.83 4.3 39.7 87 2.3 36.1
17:45 1012 29.88 841 24.83 4.2 39.6 89 2.5 36.5
17:50 1012 29.88 841 24.83 4 39.2 88 2.2 35.9
17:55 1012 29.88 841 24.83 3.9 39 88 2.1 35.9
18:00 1012 29.88 841 24.83 3.8 38.9 87 1.9 35.4
18:05 1012 29.88 842 24.86 3.7 38.7 88 1.9 35.3
18:10 1012 29.88 841 24.83 3.5 38.3 87 1.5 34.7
18:15 1012 29.88 841 24.83 3.4 38.2 88 1.6 34.9
18:20 1012 29.88 841 24.83 3.4 38.1 87 1.4 34.5
18:25 1012 29.88 841 24.83 2.9 37.3 88 1.1 34
18:30 1012 29.88 841 24.83 2.6 36.7 89 1 33.8
18:35 1012 29.88 841 24.83 2.5 36.5 90 1 33.8
18:40 1012 29.88 841 24.83 2.5 36.6 89 1 33.8
18:45 1012 29.88 841 24.83 2.7 36.9 88 1 33.8
18:50 1012 29.88 841 24.83 2.7 36.9 89 1.1 34.1
18:55 1012 29.88 841 24.83 2.7 36.8 91 1.3 34.3
19:00 1011 29.85 841 24.83 2.8 37 89 1.1 34
19:05 1011 29.85 841 24.83 3.2 37.8 87 1.3 34.4
19:10 1012 29.88 841 24.83 3.5 38.3 85 1.2 34.1
19:15 1012 29.88 841 24.83 3.8 38.9 84 1.4 34.5
19:20 1012 29.88 841 24.83 3.9 39 85 1.7 35
19:25 1012 29.88 841 24.83 3.9 39 87 1.9 35.4
19:30 1012 29.88 841 24.83 3.7 38.7 87 1.8 35.3
19:35 1012 29.88 841 24.83 3.7 38.7 86 1.6 35
19:40 1012 29.88 841 24.83 3.9 39 84 1.4 34.4
19:45 1012 29.88 841 24.83 3.8 38.9 85 1.5 34.8
19:50 1012 29.88 841 24.83 3.7 38.7 86 1.6 34.9
19:55 1012 29.88 841 24.83 3.7 38.6 88 1.8 35.3
20:00 1012 29.88 841 24.83 3.6 38.4 85 1.3 34.4
20:05 1012 29.88 841 24.83 3.8 38.8 85 1.5 34.6
20:10 1012 29.88 841 24.83 3.8 38.8 84 1.4 34.6
20:15 1012 29.88 841 24.83 3.9 39 84 1.5 34.6
20:20 1012 29.88 841 24.83 3.9 39 83 1.3 34.3
20:25 1012 29.88 841 24.83 4 39.2 85 1.7 35
20:30 1012 29.88 842 24.86 3.8 38.9 87 1.9 35.4
20:35 1012 29.88 842 24.86 3.6 38.5 87 1.7 35.1
20:40 1013 29.91 842 24.86 3.6 38.4 88 1.7 35.1
20:45 1013 29.91 842 24.86 3.5 38.2 88 1.7 35.1
20:50 1013 29.91 842 24.86 3.4 38.2 89 1.7 35.1
20:55 1013 29.91 842 24.86 3.5 38.2 88 1.7 35
21:00 1013 29.91 842 24.86 3.4 38.2 88 1.7 35
21:05 1013 29.91 842 24.86 3.4 38.1 88 1.5 34.7
21:10 1013 29.91 842 24.86 3.4 38.1 87 1.5 34.7
21:15 1013 29.91 842 24.86 3.3 38 87 1.4 34.6
21:20 1013 29.91 842 24.86 3.3 38 88 1.5 34.6
21:25 1013 29.91 842 24.86 3.4 38.1 87 1.4 34.6
21:30 1013 29.91 842 24.86 3.3 38 89 1.6 35
21:35 1013 29.91 842 24.86 3.3 37.9 88 1.4 34.6
21:40 1013 29.91 842 24.86 3.4 38.1 88 1.6 34.9
21:45 1013 29.91 842 24.86 3.4 38.2 87 1.4 34.6
21:50 1013 29.91 842 24.86 3.5 38.3 86 1.4 34.5
21:55 1013 29.91 842 24.86 3.6 38.5 83 1 33.8
22:00 1013 29.91 842 24.86 4.1 39.5 77 0.4 32.8
22:05 1013 29.91 842 24.86 4.6 40.3 76 0.8 33.4
22:10 1013 29.91 842 24.86 4.6 40.3 76 0.8 33.4
22:15 1013 29.91 842 24.86 4.6 40.3 77 0.9 33.6
22:20 1013 29.91 842 24.86 4.5 40.1 77 0.8 33.5
22:25 1013 29.91 842 24.86 4.5 40.1 80 1.3 34.4
22:30 1013 29.91 842 24.86 4.3 39.7 83 1.7 35
22:35 1013 29.91 842 24.86 3.7 38.6 86 1.6 34.9
22:40 1013 29.91 842 24.86 3.4 38.2 86 1.4 34.5
22:45 1013 29.91 842 24.86 3.4 38.1 87 1.4 34.6
22:50 1013 29.91 842 24.86 3.4 38 87 1.4 34.5
22:55 1013 29.91 842 24.86 3.2 37.7 88 1.4 34.6
23:00 1013 29.91 842 24.86 3 37.4 89 1.4 34.5
23:05 1013 29.91 842 24.86 2.9 37.2 90 1.4 34.5
23:10 1013 29.91 842 24.86 2.7 36.9 90 1.2 34.2
23:15 1013 29.91 842 24.86 2.8 37 89 1.1 34
23:20 1013 29.91 842 24.86 3 37.3 87 1.1 33.9
23:25 1013 29.91 842 24.86 3 37.4 87 1.1 33.9
23:30 1013 29.91 842 24.86 2.8 37 90 1.2 34.2
23:35 1013 29.91 842 24.86 2.5 36.5 90 1 33.8
23:40 1013 29.91 842 24.86 2.8 37 86 0.7 33.3
23:45 1013 29.91 842 24.86 3.1 37.5 84 0.6 33.1
23:50 1013 29.91 842 24.86 3.3 37.9 80 0.2 32.3
23:55 1013 29.91 842 24.86 3.6 38.4 79 0.3 32.6
24:00 1013 29.91 842 24.86 3.5 38.4 79 0.3 32.5